Flight Track Log - Related Links

Times and Time Zones

All times are in EDT time to prevent confusion due to time zone crossing. See the XOJ552 flight status page for this flight to view local times or setup timezone preferences in your user account.

Time Position Orientation Groundspeed Altitude Reporting Facility
EDT Latitude Longitude Course Direction KTS MPH feet Rate Location/Type
Thu 11:33:51 AM 34.1500 -118.4500 25° Northeast 198 228 3,300  Level Southern California TRACON
Thu 11:35:17 AM 34.2147 -118.4133 25° Northeast 243 280 6,800 2,432 Climbing Los Angeles Center
Thu 11:36:19 AM 34.2803 -118.4550 332° Northwest 265 305 9,300 2,274 Climbing Los Angeles Center
Thu 11:37:21 AM 34.3583 -118.4622 356° North 305 351 11,500 2,293 Climbing Los Angeles Center
Thu 11:38:22 AM 34.4231 -118.3833 45° Northeast 329 379 14,000 2,439 Climbing Los Angeles Center
Thu 11:39:24 AM 34.4867 -118.2972 48° Northeast 343 395 16,500 2,371 Climbing Los Angeles Center
Thu 11:40:26 AM 34.5475 -118.2006 53° Northeast 357 411 18,900 1,210 Climbing Los Angeles Center
Thu 11:41:28 AM 34.6208 -118.0842 53° Northeast 394 453 19,000 48 Climbing Los Angeles Center
Thu 11:42:30 AM 34.6433 -117.9519 78° East 403 464 19,000 145 Level Los Angeles Center
Thu 11:43:32 AM 34.6575 -117.8156 83° East 409 471 19,300 1,403 Climbing Los Angeles Center
Thu 11:44:34 AM 34.6908 -117.6567 76° East 410 472 21,900 2,323 Climbing Los Angeles Center
Thu 11:45:36 AM 34.7242 -117.5256 73° East 410 472 24,100 1,887 Climbing Los Angeles Center
Thu 11:46:38 AM 34.7653 -117.3956 69° East 421 484 25,800 1,597 Climbing Los Angeles Center
Thu 11:47:40 AM 34.8361 -117.2808 53° Northeast 428 493 27,400 1,500 Climbing Los Angeles Center
Thu 11:48:42 AM 34.9067 -117.1608 54° Northeast 436 502 28,900 1,548 Climbing Los Angeles Center
Thu 11:49:44 AM 34.9925 -117.0178 54° Northeast 440 506 30,600 1,500 Climbing Los Angeles Center
Thu 11:50:46 AM 35.0667 -116.8931 54° Northeast 449 517 32,000 1,366 Climbing Los Angeles Center
Thu 11:51:47 AM 35.1439 -116.7669 53° Northeast 458 527 33,400 1,268 Climbing Los Angeles Center
Thu 11:52:49 AM 35.2200 -116.6383 54° Northeast 465 535 34,600 1,210 Climbing Los Angeles Center
Thu 11:53:51 AM 35.2942 -116.5106 55° Northeast 464 534 35,900 1,306 Climbing Los Angeles Center
Thu 11:54:53 AM 35.3714 -116.3819 54° Northeast 468 539 37,300 1,355 Climbing Los Angeles Center
Thu 11:55:55 AM 35.4614 -116.2289 54° Northeast 463 533 38,700 1,161 Climbing Los Angeles Center
Thu 11:56:57 AM 35.5369 -116.1006 54° Northeast 465 535 39,700 968 Climbing Los Angeles Center
Thu 11:57:59 AM 35.6108 -115.9728 55° Northeast 461 531 40,700 629 Climbing Los Angeles Center
Thu 11:59:01 AM 35.6953 -115.8300 54° Northeast 458 527 41,000 143 Climbing Los Angeles Center
Thu 12:00:05 PM 35.7550 -115.6889 62° Northeast 467 537 41,000  Level Los Angeles Center
Thu 12:01:07 PM 35.8136 -115.5469 63° Northeast 467 537 41,000  Level Los Angeles Center
Thu 12:02:08 PM 35.8708 -115.4053 63° Northeast 467 537 41,000  Level Los Angeles Center
Thu 12:03:10 PM 35.9397 -115.2361 63° Northeast 464 534 41,000  Level Los Angeles Center
Thu 12:04:12 PM 35.9939 -115.0950 65° Northeast 460 529 41,000  Level Los Angeles Center
Thu 12:05:14 PM 36.0517 -114.9544 63° Northeast 462 532 41,000 194 Level Los Angeles Center
Thu 12:06:16 PM 36.1086 -114.8111 64° Northeast 465 535 41,400 532 Climbing Los Angeles Center
Thu 12:07:18 PM 36.1647 -114.6694 64° Northeast 463 533 42,100 677 Climbing Los Angeles Center
Thu 12:08:20 PM 36.2200 -114.5297 64° Northeast 458 527 42,800 435 Climbing Los Angeles Center
Thu 12:09:22 PM 36.2861 -114.3625 64° Northeast 453 521 43,000 96 Climbing Los Angeles Center
Thu 12:10:25 PM 36.3408 -114.2233 64° Northeast 451 519 43,000  Level Los Angeles Center
Thu 12:11:27 PM 36.3939 -114.0856 64° Northeast 447 514 43,000  Level Los Angeles Center
Thu 12:12:29 PM 36.4481 -113.9447 64° Northeast 450 518 43,000  Level Los Angeles Center
Thu 12:13:31 PM 36.5022 -113.8039 64° Northeast 451 519 43,000  Level Los Angeles Center
Thu 12:14:33 PM 36.5547 -113.6644 65° Northeast 448 516 43,000  Level Los Angeles Center
Thu 12:15:35 PM 36.6208 -113.4961 64° Northeast 451 519 43,000  Level Los Angeles Center
Thu 12:16:37 PM 36.6739 -113.3553 65° Northeast 452 520 43,000  Level Los Angeles Center
Thu 12:17:39 PM 36.7267 -113.2122 65° Northeast 454 522 43,000  Level Los Angeles Center
Thu 12:18:41 PM 36.7803 -113.0706 65° Northeast 454 522 43,000  Level Los Angeles Center
Thu 12:19:43 PM 36.8328 -112.9289 65° Northeast 452 520 43,000  Level Los Angeles Center
Thu 12:20:45 PM 36.8958 -112.7594 65° Northeast 451 519 43,000  Level Los Angeles Center
Thu 12:21:59 PM 36.9594 -112.5903 65° Northeast 451 519 43,000  Level Los Angeles Center
Thu 12:23:01 PM 37.0111 -112.4494 65° Northeast 450 518 43,000  Level Los Angeles Center
Thu 12:24:03 PM 37.0631 -112.3092 65° Northeast 449 517 43,000  Level Los Angeles Center
Thu 12:25:05 PM 37.1153 -112.1689 65° Northeast 448 516 43,000  Level Los Angeles Center
Thu 12:26:08 PM 37.1761 -111.9997 66° East 446 513 43,000  Level Los Angeles Center
Thu 12:27:10 PM 37.2281 -111.8592 65° Northeast 447 514 43,000 48 Level Los Angeles Center
Thu 12:28:12 PM 37.2786 -111.7186 66° East 446 513 43,100 339 Climbing Los Angeles Center
Thu 12:29:14 PM 37.3281 -111.5808 66° East 440 506 43,700 484 Climbing Los Angeles Center
Thu 12:30:16 PM 37.3772 -111.4453 65° Northeast 432 497 44,100 387 Climbing Los Angeles Center
Thu 12:31:18 PM 37.4250 -111.3086 66° East 428 493 44,500 313 Climbing Los Angeles Center
Thu 12:32:30 PM 37.4808 -111.1472 66° East 425 489 44,800 134 Climbing Denver Center
Thu 12:33:32 PM 37.5378 -110.9831 66° East 428 493 44,800  Level Denver Center
Thu 12:34:34 PM 37.5869 -110.8447 66° East 433 498 44,800  Level Denver Center
Thu 12:35:36 PM 37.6372 -110.7042 66° East 440 506 44,800  Level Denver Center
Thu 12:36:37 PM 37.6753 -110.5908 67° East 441 507 44,800 97 Level Denver Center
Thu 12:37:40 PM 37.7356 -110.4158 66° East 441 507 45,000 96 Climbing Denver Center
Thu 12:38:42 PM 37.7903 -110.2575 66° East 440 506 45,000  Level Denver Center
Thu 12:39:44 PM 37.8383 -110.1186 66° East 446 513 45,000  Level Denver Center
Thu 12:40:46 PM 37.8919 -109.9594 67° East 443 510 45,000  Level Denver Center
Thu 12:41:48 PM 37.9375 -109.8222 67° East 441 507 45,000  Level Denver Center
Thu 12:42:50 PM 37.9919 -109.6608 67° East 444 511 45,000  Level Denver Center
Thu 12:43:52 PM 38.0389 -109.5236 66° East 443 510 45,000  Level Denver Center
Thu 12:44:54 PM 38.0861 -109.3794 67° East 446 513 45,000  Level Denver Center
Thu 12:45:56 PM 38.1400 -109.2189 67° East 444 511 45,000  Level Denver Center
Thu 12:46:58 PM 38.1861 -109.0758 68° East 455 524 45,000  Level Denver Center
Thu 12:48:00 PM 38.2394 -108.9111 68° East 453 521 45,000  Level Denver Center
Thu 12:49:02 PM 38.2853 -108.7725 67° East 448 516 45,000  Level Denver Center
Thu 12:50:16 PM 38.3378 -108.6092 68° East 446 513 45,000  Level Denver Center
Thu 12:51:19 PM 38.3981 -108.4250 67° East 443 510 45,000  Level Denver Center
Thu 12:52:21 PM 38.4422 -108.2858 68° East 443 510 45,000  Level Denver Center
Thu 12:53:23 PM 38.4872 -108.1444 68° East 449 517 45,000  Level Denver Center
Thu 12:54:25 PM 38.5397 -107.9806 68° East 448 516 45,000  Level Denver Center
Thu 12:55:27 PM 38.5831 -107.8400 68° East 447 514 45,000  Level Denver Center
Thu 12:56:29 PM 38.6358 -107.6761 68° East 447 514 45,000  Level Denver Center
Thu 12:57:31 PM 38.6797 -107.5347 68° East 448 516 45,000  Level Denver Center
Thu 12:58:33 PM 38.7297 -107.3722 68° East 443 510 45,000  Level Denver Center
Thu 12:59:36 PM 38.7722 -107.2311 69° East 444 511 45,000  Level Denver Center
Thu 01:00:38 PM 38.8186 -107.0819 68° East 450 518 45,000  Level Denver Center
Thu 01:01:40 PM 38.8636 -106.9358 68° East 443 510 45,000  Level Denver Center
Thu 01:02:42 PM 38.9158 -106.7619 69° East 440 506 45,000  Level Denver Center
Thu 01:03:44 PM 38.9581 -106.6217 69° East 440 506 45,000  Level Denver Center
Thu 01:04:46 PM 39.0067 -106.4564 69° East 442 509 45,000  Level Denver Center
Thu 01:05:48 PM 39.0486 -106.3164 69° East 439 505 45,000  Level Denver Center
Thu 01:06:50 PM 39.0969 -106.1544 69° East 436 502 45,000  Level Denver Center
Thu 01:07:52 PM 39.1411 -106.0089 69° East 437 503 45,000  Level Denver Center
Thu 01:09:07 PM 39.1919 -105.8347 69° East 434 499 45,000  Level Denver Center
Thu 01:10:09 PM 39.2342 -105.6892 69° East 434 499 45,000  Level Denver Center
Thu 01:11:11 PM 39.2764 -105.5444 69° East 434 499 45,000  Level Denver Center
Thu 01:12:13 PM 39.3272 -105.3697 69° East 433 498 45,000  Level Denver Center
Thu 01:13:15 PM 39.3694 -105.2231 70° East 440 506 45,000  Level Denver Center
Thu 01:14:17 PM 39.4108 -105.0781 70° East 436 502 45,000  Level Denver Center
Thu 01:15:19 PM 39.4511 -104.9339 70° East 431 496 45,000  Level Denver Center
Thu 01:16:20 PM 39.4825 -104.8200 70° East 426 490 45,000  Level Denver Center
Thu 01:17:23 PM 39.5347 -104.6214 71° East 444 511 45,000  Level Denver Center
Thu 01:18:25 PM 39.5772 -104.4803 69° East 430 495 45,000  Level Denver Center
Thu 01:19:39 PM 39.6164 -104.3383 70° East 423 487 45,000  Level Denver Center
Thu 01:20:41 PM 39.6636 -104.1661 70° East 424 488 45,000  Level Denver Center
Thu 01:21:44 PM 39.7106 -103.9933 70° East 422 486 45,000  Level Denver Center
Thu 01:22:46 PM 39.7503 -103.8469 71° East 430 495 45,000  Level Denver Center
Thu 01:23:48 PM 39.7892 -103.7069 70° East 416 479 45,000  Level Denver Center
Thu 01:24:50 PM 39.8275 -103.5614 71° East 421 484 45,000  Level Denver Center
Thu 01:25:52 PM 39.8667 -103.4150 71° East 428 493 45,000  Level Denver Center
Thu 01:26:54 PM 39.9067 -103.2689 70° East 430 495 45,000  Level Denver Center
Thu 01:27:56 PM 39.9519 -103.0925 71° East 428 493 45,000  Level Denver Center
Thu 01:28:58 PM 39.9908 -102.9450 71° East 430 495 45,000  Level Denver Center
Thu 01:30:00 PM 40.0289 -102.8017 71° East 422 486 45,000  Level Denver Center
Thu 01:31:02 PM 40.0658 -102.6536 72° East 416 479 45,000  Level Denver Center
Thu 01:32:04 PM 40.1078 -102.4950 71° East 414 476 45,000  Level Denver Center
Thu 01:33:06 PM 40.1431 -102.3572 71° East 417 480 45,000  Level Denver Center
Thu 01:34:08 PM 40.1828 -102.1950 72° East 421 484 45,000  Level Denver Center
Thu 01:35:10 PM 40.2178 -102.0564 72° East 421 484 45,000  Level Denver Center
Thu 01:36:12 PM 40.2542 -101.9181 71° East 421 484 45,000  Level Denver Center
Thu 01:37:14 PM 40.2942 -101.7528 72° East 426 490 45,000  Level Denver Center
Thu 01:38:16 PM 40.3292 -101.6117 72° East 427 491 45,000  Level Denver Center
Thu 01:39:18 PM 40.3708 -101.4469 72° East 426 490 45,000  Level Denver Center
Thu 01:40:20 PM 40.4053 -101.3036 72° East 430 495 45,000  Level Denver Center
Thu 01:41:22 PM 40.4453 -101.1386 72° East 429 494 45,000  Level Denver Center
Thu 01:42:24 PM 40.4789 -100.9958 73° East 430 495 45,000  Level Denver Center
Thu 01:43:26 PM 40.5192 -100.8292 72° East 432 497 45,000  Level Denver Center
Thu 01:44:28 PM 40.5528 -100.6861 73° East 433 498 45,000  Level Denver Center
Thu 01:45:30 PM 40.5925 -100.5200 72° East 431 496 45,000  Level Denver Center
Thu 01:46:32 PM 40.6261 -100.3769 73° East 431 496 45,000  Level Denver Center
Thu 01:47:34 PM 40.6656 -100.2119 72° East 428 493 45,000  Level Denver Center
Thu 01:48:36 PM 40.6989 -100.0675 73° East 430 495 45,000  Level Denver Center
Thu 01:49:38 PM 40.7375 -99.9000 73° East 429 494 45,000  Level Denver Center
Thu 01:50:40 PM 40.7739 -99.7411 73° East 430 495 45,000  Level Denver Center
Thu 01:51:42 PM 40.8092 -99.5900 73° East 432 497 45,000  Level Denver Center
Thu 01:52:44 PM 40.8431 -99.4375 74° East 433 498 45,000  Level Denver Center
Thu 01:53:46 PM 40.8767 -99.2864 74° East 431 496 45,000  Level Denver Center
Thu 01:54:48 PM 40.9100 -99.1356 74° East 430 495 45,000  Level Denver Center
Thu 01:55:50 PM 40.9489 -98.9558 74° East 434 499 45,000  Level Denver Center
Thu 01:56:52 PM 40.9750 -98.8331 74° East 435 501 45,000  Level Denver Center
Thu 01:57:54 PM 41.0156 -98.6492 74° East 439 505 45,000  Level Denver Center
Thu 01:58:56 PM 41.0425 -98.5289 73° East 435 501 45,000  Level Denver Center
Thu 02:00:25 PM 41.1014 -98.2561 74° East 431 496 45,000  Level Minneapolis Center
Thu 02:01:27 PM 41.1344 -98.1028 74° East 433 498 45,000  Level Minneapolis Center
Thu 02:02:29 PM 41.1661 -97.9494 75° East 432 497 45,000  Level Minneapolis Center
Thu 02:03:31 PM 41.1983 -97.7953 74° East 434 499 45,000  Level Minneapolis Center
Thu 02:04:33 PM 41.2303 -97.6389 75° East 438 504 45,000  Level Minneapolis Center
Thu 02:05:34 PM 41.2689 -97.4522 75° East 439 505 45,000  Level Minneapolis Center
Thu 02:06:36 PM 41.2958 -97.3225 75° East 438 504 45,000  Level Minneapolis Center
Thu 02:07:38 PM 41.3339 -97.1361 75° East 437 503 45,000  Level Minneapolis Center
Thu 02:08:40 PM 41.3658 -96.9792 75° East 438 504 45,000  Level Minneapolis Center
Thu 02:09:41 PM 41.3914 -96.8525 75° East 440 506 45,000  Level Minneapolis Center
Thu 02:10:43 PM 41.4278 -96.6650 75° East 437 503 45,000  Level Minneapolis Center
Thu 02:11:45 PM 41.4597 -96.5061 75° East 440 506 45,000  Level Minneapolis Center
Thu 02:12:47 PM 41.4947 -96.3233 76° East 442 509 45,000  Level Minneapolis Center
Thu 02:13:49 PM 41.5256 -96.1633 76° East 445 512 45,000  Level Minneapolis Center
Thu 02:14:50 PM 41.5553 -96.0028 76° East 445 512 45,000  Level Minneapolis Center
Thu 02:15:52 PM 41.5864 -95.8453 75° East 443 510 45,000  Level Minneapolis Center
Thu 02:16:54 PM 41.6156 -95.6872 76° East 439 505 45,000  Level Minneapolis Center
Thu 02:17:55 PM 41.6481 -95.5094 76° East 442 509 45,000  Level Minneapolis Center
Thu 02:18:57 PM 41.6769 -95.3500 76° East 442 509 45,000  Level Minneapolis Center
Thu 02:19:59 PM 41.7072 -95.1906 76° East 441 507 45,000  Level Minneapolis Center
Thu 02:21:00 PM 41.7367 -95.0306 76° East 443 510 45,000  Level Minneapolis Center
Thu 02:22:02 PM 41.7656 -94.8661 77° East 450 518 45,000  Level Minneapolis Center
Thu 02:23:04 PM 41.7950 -94.7022 76° East 451 519 45,000  Level Minneapolis Center
Thu 02:24:06 PM 41.8247 -94.5372 76° East 454 522 45,000  Level Minneapolis Center
Thu 02:25:07 PM 41.8494 -94.4050 76° East 456 525 45,000  Level Minneapolis Center
Thu 02:26:09 PM 41.8886 -94.1742 77° East 454 522 45,000  Level Minneapolis Center
Thu 02:27:11 PM 41.9169 -94.0100 77° East 453 521 45,000  Level Minneapolis Center
Thu 02:28:12 PM 41.9450 -93.8472 77° East 454 522 45,000  Level Minneapolis Center
Thu 02:29:14 PM 41.9742 -93.6656 78° East 458 527 45,000  Level Minneapolis Center
Thu 02:30:16 PM 42.0017 -93.5017 77° East 455 524 45,000  Level Minneapolis Center
Thu 02:31:29 PM 42.0292 -93.3367 77° East 457 526 45,000  Level Minneapolis Center
Thu 02:32:31 PM 42.0619 -93.1378 77° East 457 526 45,000  Level Minneapolis Center
Thu 02:33:33 PM 42.0892 -92.9708 78° East 461 531 45,000  Level Minneapolis Center
Thu 02:34:16 PM 42.1100 -92.8350 78° East 462 532 45,000  Level Chicago Center
Thu 02:35:18 PM 42.1364 -92.6672 78° East 463 533 45,000  Level Chicago Center
Thu 02:36:19 PM 42.1628 -92.4992 78° East 464 534 45,000  Level Chicago Center
Thu 02:37:21 PM 42.1900 -92.3331 77° East 462 532 45,000  Level Chicago Center
Thu 02:38:23 PM 42.2206 -92.1317 78° East 461 531 45,000  Level Chicago Center
Thu 02:39:25 PM 42.2456 -91.9636 79° East 463 533 45,000  Level Chicago Center
Thu 02:40:26 PM 42.2722 -91.7944 78° East 467 537 45,000  Level Chicago Center
Thu 02:41:28 PM 42.2969 -91.6231 79° East 471 542 45,000  Level Chicago Center
Thu 02:42:30 PM 42.3275 -91.4169 79° East 475 547 45,000  Level Chicago Center
Thu 02:43:32 PM 42.3519 -91.2469 79° East 470 541 45,000  Level Chicago Center
Thu 02:44:33 PM 42.3781 -91.0731 78° East 479 551 45,000  Level Chicago Center
Thu 02:45:35 PM 42.4017 -90.9000 79° East 475 547 45,000  Level Chicago Center
Thu 02:46:37 PM 42.4267 -90.7261 79° East 478 550 45,000  Level Chicago Center
Thu 02:47:39 PM 42.4542 -90.5189 80° East 473 544 45,000  Level Chicago Center
Thu 02:48:40 PM 42.4786 -90.3444 79° East 476 548 45,000  Level Chicago Center
Thu 02:49:42 PM 42.5019 -90.1722 80° East 473 544 45,000  Level Chicago Center
Thu 02:50:44 PM 42.5253 -89.9989 80° East 473 544 45,000  Level Chicago Center
Thu 02:51:46 PM 42.5517 -89.8011 80° East 472 543 45,000  Level Chicago Center
Thu 02:52:47 PM 42.5747 -89.6267 80° East 471 542 45,000  Level Chicago Center
Thu 02:53:49 PM 42.5972 -89.4517 80° East 470 541 45,000  Level Chicago Center
Thu 02:54:51 PM 42.6194 -89.2761 80° East 470 541 45,000  Level Chicago Center
Thu 02:55:52 PM 42.6417 -89.1006 80° East 471 542 45,000  Level Chicago Center
Thu 02:56:54 PM 42.6669 -88.8933 81° East 474 545 45,000  Level Chicago Center
Thu 02:57:56 PM 42.6886 -88.7167 80° East 475 547 45,000  Level Chicago Center
Thu 02:58:58 PM 42.7100 -88.5403 81° East 475 547 45,000  Level Chicago Center
Thu 02:59:59 PM 42.7314 -88.3622 81° East 476 548 45,000  Level Chicago Center
Thu 03:01:01 PM 42.7522 -88.1850 81° East 477 549 45,000  Level Chicago Center
Thu 03:02:03 PM 42.7728 -88.0075 81° East 477 549 45,000  Level Chicago Center
Thu 03:03:05 PM 42.7972 -87.7997 81° East 477 549 45,000  Level Chicago Center
Thu 03:04:06 PM 42.8169 -87.6222 81° East 477 549 45,000  Level Chicago Center
Thu 03:05:08 PM 42.8367 -87.4425 81° East 479 551 45,000  Level Chicago Center
Thu 03:06:10 PM 42.8550 -87.2783 81° East 478 550 45,000  Level Chicago Center
Thu 03:07:11 PM 42.8744 -87.0994 82° East 478 550 45,000  Level Chicago Center
Thu 03:08:13 PM 42.8967 -86.8836 82° East 481 554 45,000  Level Chicago Center
Thu 03:09:15 PM 42.9153 -86.7022 82° East 483 556 45,000  Level Chicago Center
Thu 03:10:16 PM 42.9344 -86.5231 82° East 481 554 45,000  Level Chicago Center
Thu 03:11:18 PM 42.9528 -86.3439 82° East 480 552 45,000  Level Chicago Center
Thu 03:12:20 PM 42.9694 -86.1658 83° East 479 551 45,000  Level Chicago Center
Thu 03:13:21 PM 42.9903 -85.9739 81° East 487 560 45,000  Level Chicago Center
Thu 03:14:23 PM 43.0069 -85.7797 83° East 485 558 45,000  Level Chicago Center
Thu 03:15:25 PM 43.0239 -85.6028 82° East 475 547 45,000  Level Chicago Center
Thu 03:16:26 PM 43.0400 -85.4283 83° East 466 536 45,000  Level Chicago Center
Thu 03:17:28 PM 43.0561 -85.2550 83° East 463 533 45,000  Level Chicago Center
Thu 03:18:30 PM 43.0725 -85.0783 83° East 467 537 45,000  Level Chicago Center
Thu 03:19:31 PM 43.0908 -84.8669 83° East 468 539 45,000  Level Chicago Center
Thu 03:20:33 PM 43.1069 -84.6878 83° East 473 544 45,000  Level Chicago Center
Thu 03:21:34 PM 43.1214 -84.5086 84° East 475 547 45,000  Level Chicago Center
Thu 03:22:36 PM 43.1372 -84.3289 83° East 477 549 45,000  Level Chicago Center
Thu 03:23:38 PM 43.1517 -84.1492 84° East 477 549 45,000  Level Chicago Center
Thu 03:24:43 PM 43.1636 -83.9478 85° East 463 533 45,000  Level Cleveland Center
Thu 03:25:43 PM 43.1817 -83.7522 83° East 463 533 45,000  Level Cleveland Center
Thu 03:26:43 PM 43.1947 -83.5706 84° East 472 543 45,000  Level Cleveland Center
Thu 03:27:43 PM 43.2078 -83.3858 84° East 478 550 45,000  Level Cleveland Center
Thu 03:28:43 PM 43.2225 -83.2042 84° East 478 550 45,000  Level Cleveland Center
Thu 03:29:13 PM 43.2167 -83.1167 95° East 490 564 45,000  Level Toronto Center
Thu 03:29:43 PM 43.2347 -83.0197 76° East 478 550 45,000  Level Cleveland Center
Thu 03:30:43 PM 43.2467 -82.8375 85° East 478 550 45,000  Level Cleveland Center
Thu 03:31:43 PM 43.2650 -82.6500 82° East 483 556 45,000  Level Cleveland Center
Thu 03:32:13 PM 43.2667 -82.5667 88° East 490 564 45,000  Level Toronto Center
Thu 03:33:13 PM 43.3000 -82.3667 77° East 490 564 45,000  Level Toronto Center
Thu 03:34:13 PM 43.3167 -82.1833 83° East 490 564 45,000  Level Toronto Center
Thu 03:35:13 PM 43.3333 -82.0000 83° East 490 564 45,000  Level Toronto Center
Thu 03:36:13 PM 43.3833 -81.8167 69° East 500 575 45,000  Level Toronto Center
Thu 03:37:13 PM 43.4000 -81.6333 83° East 500 575 45,000  Level Toronto Center
Thu 03:38:13 PM 43.4167 -81.4500 83° East 500 575 45,000  Level Toronto Center
Thu 03:39:13 PM 43.4333 -81.2667 83° East 500 575 45,000  Level Toronto Center
Thu 03:40:13 PM 43.4667 -81.0500 78° East 490 564 45,000  Level Toronto Center
Thu 03:41:13 PM 43.4833 -80.8667 83° East 500 575 45,000  Level Toronto Center
Thu 03:42:13 PM 43.5167 -80.6833 76° East 500 575 45,000  Level Toronto Center
Thu 03:43:13 PM 43.5500 -80.5000 76° East 500 575 45,000  Level Toronto Center
Thu 03:44:14 PM 43.5667 -80.3000 83° East 490 564 45,000  Level Toronto Center
Thu 03:45:13 PM 43.5833 -80.1167 83° East 500 575 45,000  Level Toronto Center
Thu 03:46:13 PM 43.6167 -79.9500 75° East 490 564 45,000  Level Toronto Center
Thu 03:47:13 PM 43.6500 -79.7500 77° East 510 587 45,000  Level Toronto Center
Thu 03:48:13 PM 43.6667 -79.5667 83° East 500 575 45,000  Level Toronto Center
Thu 03:49:13 PM 43.7000 -79.3833 76° East 510 587 45,000  Level Toronto Center
Thu 03:50:13 PM 43.7333 -79.2000 76° East 490 564 45,000  Level Toronto Center
Thu 03:51:13 PM 43.7667 -79.0167 76° East 500 575 45,000  Level Toronto Center
Thu 03:52:13 PM 43.7833 -78.8167 83° East 500 575 45,000  Level Toronto Center
Thu 03:53:13 PM 43.8167 -78.6167 77° East 500 575 45,000  Level Toronto Center
Thu 03:54:13 PM 43.8333 -78.4500 82° East 500 575 45,000  Level Toronto Center
Thu 03:55:13 PM 43.8667 -78.2500 77° East 500 575 45,000  Level Toronto Center
Thu 03:56:13 PM 43.8833 -78.0667 83° East 500 575 45,000  Level Toronto Center
Thu 03:57:13 PM 43.9167 -77.8667 77° East 500 575 45,000  Level Toronto Center
Thu 03:58:13 PM 43.9500 -77.6833 76° East 500 575 45,000  Level Toronto Center
Thu 03:59:13 PM 43.9833 -77.5000 76° East 490 564 45,000 -200 Level Toronto Center
Thu 04:00:13 PM 43.9833 -77.3167 90° East 490 564 44,600 -1,000 Descending Toronto Center
Thu 04:01:13 PM 44.0167 -77.1333 76° East 490 564 43,000 -1,900 Descending Toronto Center
Thu 04:02:13 PM 44.0500 -76.9333 77° East 490 564 40,800 -2,350 Descending Toronto Center
Thu 04:03:13 PM 44.0667 -76.7500 83° East 490 564 38,300 -2,400 Descending Toronto Center
Thu 04:04:13 PM 44.0833 -76.5667 83° East 500 575 36,000 -2,400 Descending Toronto Center
Thu 04:05:13 PM 44.1333 -76.3833 69° East 510 587 33,500 -2,400 Descending Toronto Center
Thu 04:06:13 PM 44.1667 -76.2000 76° East 510 587 31,200 -2,272 Descending Toronto Center
Thu 04:06:56 PM 44.2094 -76.0986 59° Northeast 503 579 29,600 -2,330 Descending Boston Center
Thu 04:07:56 PM 44.2486 -75.9125 74° East 503 579 27,200 -2,350 Descending Boston Center
Thu 04:08:56 PM 44.2872 -75.7292 74° East 503 579 24,900 -2,250 Descending Boston Center
Thu 04:09:56 PM 44.3281 -75.5369 73° East 481 554 22,700 -2,300 Descending Boston Center
Thu 04:10:56 PM 44.3639 -75.3614 74° East 470 541 20,300 -2,300 Descending Boston Center
Thu 04:11:56 PM 44.3994 -75.1919 74° East 464 534 18,100 -2,000 Descending Boston Center
Thu 04:12:56 PM 44.4322 -75.0275 74° East 453 521 16,300 -1,900 Descending Boston Center
Thu 04:13:56 PM 44.4669 -74.8692 73° East 433 498 14,300 -1,950 Descending Boston Center
Thu 04:14:56 PM 44.4950 -74.7161 76° East 416 479 12,400 -1,800 Descending Boston Center
Thu 04:15:56 PM 44.5228 -74.5803 74° East 387 445 10,700 -1,600 Descending Boston Center
Thu 04:16:56 PM 44.5619 -74.4797 61° Northeast 344 396 9,200 -1,600 Descending Boston Center
Thu 04:17:56 PM 44.6056 -74.3733 60° Northeast 319 367 7,500 -1,455 Descending Boston Center
Thu 04:19:08 PM 44.6575 -74.2553 58° Northeast 301 346 6,000 -682 Descending Boston Center
Thu 04:20:08 PM 44.6675 -74.1475 83° East 286 329 6,000  Level Boston Center
Thu 04:21:08 PM 44.6042 -74.0642 137° Southeast 234 269 6,000 -350 Level Boston Center
Thu 04:22:08 PM 44.5500 -74.0481 168° South 197 227 5,300 -700 Descending Boston Center
Thu 04:23:08 PM 44.5122 -74.0850 215° Southwest 169 194 4,600 -800 Descending Boston Center
Thu 04:24:08 PM 44.4742 -74.1186 212° Southwest 163 188 3,700 -800 Descending Boston Center
Thu 04:25:08 PM 44.4467 -74.1469 216° Southwest 158 182 3,000 -700 Descending Boston Center
Thu 04:27:00 PM 44.3833 -74.2000 North  Level FlightAware Approximate
Thu 04:34:00 PM 44.3853 -74.2062 North  Level Estimated
Thu 04:35:00 PM 44.3833 -74.2000 North  Level FlightAware Approximate
Thu 04:36:00 PM 44.3853 -74.2062 North  Level Estimated
Thu 04:37:00 PM 44.3833 -74.2000 North  Level FlightAware Approximate
Thu 04:38:00 PM 44.3853 -74.2062 North  Level Estimated
Thu 04:39:00 PM 44.3833 -74.2000 North  Level FlightAware Approximate

Login

Don't have an account? Register now (free) for customized features, flight alerts, and more!